createdAt,value
2018-05-11T00:00:41.113Z,14.80
2018-05-11T00:01:41.104Z,14.20
2018-05-11T00:02:41.091Z,14.50
2018-05-11T00:03:41.098Z,15.20
2018-05-11T00:04:41.073Z,15.70
2018-05-11T00:05:41.073Z,15.50
2018-05-11T00:06:41.063Z,15.50
2018-05-11T00:07:41.051Z,15.30
2018-05-11T00:08:41.045Z,15.70
2018-05-11T00:09:41.033Z,14.30
2018-05-11T00:10:41.021Z,15.20
2018-05-11T00:11:41.022Z,16.20
2018-05-11T00:12:41.007Z,15.80
2018-05-11T00:13:41.002Z,15.10
2018-05-11T00:14:40.993Z,16.10
2018-05-11T00:15:40.985Z,15.80
2018-05-11T00:16:40.978Z,15.80
2018-05-11T00:17:40.968Z,16.00
2018-05-11T00:18:40.965Z,15.80
2018-05-11T00:19:40.960Z,15.50
2018-05-11T00:20:40.944Z,16.30
2018-05-11T00:21:40.943Z,16.30
2018-05-11T00:22:40.931Z,15.50
2018-05-11T00:23:40.920Z,15.40
2018-05-11T00:24:42.691Z,15.70
2018-05-11T00:25:40.914Z,16.00
2018-05-11T00:26:40.899Z,15.90
2018-05-11T00:27:40.891Z,15.30
2018-05-11T00:28:40.886Z,16.30
2018-05-11T00:29:40.874Z,16.10
2018-05-11T00:30:40.867Z,16.70
2018-05-11T00:31:40.862Z,15.70
2018-05-11T00:32:40.854Z,16.30
2018-05-11T00:33:40.847Z,16.30
2018-05-11T00:34:40.850Z,16.50
2018-05-11T00:35:40.823Z,15.20
2018-05-11T00:36:40.821Z,15.90
2018-05-11T00:37:40.815Z,17.80
2018-05-11T00:38:40.811Z,16.40
2018-05-11T00:39:40.799Z,17.20
2018-05-11T00:40:40.787Z,16.50
2018-05-11T00:41:40.784Z,15.70
2018-05-11T00:42:40.771Z,16.20
2018-05-11T00:43:40.763Z,16.80
2018-05-11T00:44:40.794Z,16.50
2018-05-11T00:45:40.751Z,16.80
2018-05-11T00:46:40.736Z,17.20
2018-05-11T00:47:40.735Z,16.90
2018-05-11T00:48:40.724Z,17.20
2018-05-11T00:49:40.771Z,16.80
2018-05-11T00:50:40.714Z,16.90
2018-05-11T00:51:40.695Z,17.00
2018-05-11T00:52:40.703Z,17.40
2018-05-11T00:53:40.679Z,16.30
2018-05-11T00:54:40.673Z,16.60
2018-05-11T00:55:40.673Z,17.10
2018-05-11T00:56:40.661Z,17.10
2018-05-11T00:57:40.651Z,17.00
2018-05-11T00:58:40.640Z,17.70
2018-05-11T00:59:40.635Z,16.80
2018-05-11T01:00:40.624Z,17.30
2018-05-11T01:01:40.627Z,17.60
2018-05-11T01:02:40.610Z,17.90
2018-05-11T01:03:40.603Z,17.20
2018-05-11T01:04:41.203Z,17.90
2018-05-11T01:05:40.583Z,17.90
2018-05-11T01:06:40.586Z,17.80
2018-05-11T01:07:40.566Z,17.40
2018-05-11T01:08:40.566Z,17.60
2018-05-11T01:09:40.555Z,18.20
2018-05-11T01:10:40.545Z,18.40
2018-05-11T01:11:40.535Z,17.90
2018-05-11T01:12:40.529Z,19.20
2018-05-11T01:13:40.520Z,18.40
2018-05-11T01:14:40.508Z,17.80
2018-05-11T01:15:40.586Z,17.40
2018-05-11T01:16:40.498Z,19.20
2018-05-11T01:17:40.494Z,18.40
2018-05-11T01:18:40.479Z,17.80
2018-05-11T01:19:40.487Z,18.00
2018-05-11T01:20:40.466Z,19.20
2018-05-11T01:21:40.459Z,18.40
2018-05-11T01:22:40.452Z,18.20
2018-05-11T01:23:40.436Z,17.60
2018-05-11T01:24:45.202Z,18.70
2018-05-11T01:25:40.427Z,19.60
2018-05-11T01:26:40.415Z,18.50
2018-05-11T01:27:40.410Z,18.00
2018-05-11T01:28:40.410Z,19.20
2018-05-11T01:29:40.394Z,19.10
2018-05-11T01:30:40.384Z,18.20
2018-05-11T01:31:40.374Z,18.30
2018-05-11T01:32:40.367Z,18.80
2018-05-11T01:33:40.354Z,19.00
2018-05-11T01:34:40.350Z,18.20
2018-05-11T01:35:40.345Z,19.50
2018-05-11T01:36:40.336Z,19.00
2018-05-11T01:37:40.328Z,19.70
2018-05-11T01:38:40.320Z,18.50
2018-05-11T01:39:40.310Z,19.50
2018-05-11T01:40:40.301Z,19.20
2018-05-11T01:41:40.296Z,18.10
2018-05-11T01:42:40.291Z,19.20
2018-05-11T01:43:40.276Z,18.50
2018-05-11T01:44:40.269Z,19.00
2018-05-11T01:45:40.258Z,18.20
2018-05-11T01:46:43.200Z,19.30
2018-05-11T01:47:40.243Z,18.80
2018-05-11T01:48:40.242Z,18.90
2018-05-11T01:49:40.227Z,19.10
2018-05-11T01:50:40.222Z,19.90
2018-05-11T01:51:40.214Z,19.50
2018-05-11T01:52:40.201Z,18.30
2018-05-11T01:53:40.202Z,18.80
2018-05-11T01:54:40.185Z,18.90
2018-05-11T01:55:40.177Z,19.90
2018-05-11T01:56:40.169Z,19.60
2018-05-11T01:57:40.167Z,18.40
2018-05-11T01:58:40.155Z,19.90
2018-05-11T01:59:40.146Z,20.10
2018-05-11T02:00:40.132Z,18.90
2018-05-11T02:01:40.130Z,19.00
2018-05-11T02:02:40.120Z,19.20
2018-05-11T02:03:40.118Z,20.30
2018-05-11T02:04:40.110Z,19.10
2018-05-11T02:05:40.093Z,20.20
2018-05-11T02:06:40.087Z,20.30
2018-05-11T02:07:40.080Z,19.80
2018-05-11T02:08:40.070Z,20.20
2018-05-11T02:09:40.065Z,19.40
2018-05-11T02:10:40.057Z,20.40
2018-05-11T02:11:40.051Z,20.00
2018-05-11T02:12:40.037Z,21.10
2018-05-11T02:13:40.027Z,20.50
2018-05-11T02:14:40.022Z,20.60
2018-05-11T02:15:40.015Z,20.20
2018-05-11T02:16:40.014Z,20.50
2018-05-11T02:17:39.998Z,19.10
2018-05-11T02:18:40.061Z,21.40
2018-05-11T02:19:39.979Z,19.70
2018-05-11T02:20:39.971Z,20.10
2018-05-11T02:21:39.960Z,21.00
2018-05-11T02:22:39.956Z,21.40
2018-05-11T02:23:39.946Z,21.70
2018-05-11T02:24:39.943Z,21.10
2018-05-11T02:25:39.931Z,21.50
2018-05-11T02:26:39.921Z,21.60
2018-05-11T02:27:39.910Z,21.40
2018-05-11T02:28:39.905Z,21.10
2018-05-11T02:29:39.899Z,20.70
2018-05-11T02:30:39.888Z,21.00
2018-05-11T02:31:39.881Z,21.10
2018-05-11T02:32:39.869Z,21.50
2018-05-11T02:33:39.863Z,23.00
2018-05-11T02:34:39.861Z,21.80
2018-05-11T02:35:39.848Z,21.40
2018-05-11T02:36:39.841Z,22.50
2018-05-11T02:37:39.831Z,20.70
2018-05-11T02:38:39.824Z,21.50
2018-05-11T02:39:39.815Z,21.50
2018-05-11T02:40:39.804Z,19.80
2018-05-11T02:41:39.799Z,20.80
2018-05-11T02:42:39.788Z,21.10
2018-05-11T02:43:39.784Z,21.60
2018-05-11T02:44:39.768Z,22.40
2018-05-11T02:45:39.764Z,21.70
2018-05-11T02:46:39.753Z,21.50
2018-05-11T02:47:39.751Z,22.20
2018-05-11T02:48:39.737Z,21.00
2018-05-11T02:49:39.731Z,21.00
2018-05-11T02:50:39.805Z,20.70
2018-05-11T02:51:39.723Z,21.70
2018-05-11T02:52:39.705Z,22.00
2018-05-11T02:53:39.702Z,21.90
2018-05-11T02:54:39.685Z,21.70
2018-05-11T02:55:39.679Z,21.80
2018-05-11T02:56:39.668Z,21.00
2018-05-11T02:57:39.667Z,22.00
2018-05-11T02:58:39.653Z,21.30
2018-05-11T02:59:39.655Z,21.70
2018-05-11T03:00:39.646Z,20.80
2018-05-11T03:01:39.628Z,21.70
2018-05-11T03:02:39.630Z,20.30
2018-05-11T03:03:39.622Z,22.60
2018-05-11T03:04:39.603Z,21.60
2018-05-11T03:05:39.594Z,20.70
2018-05-11T03:06:39.584Z,21.70
2018-05-11T03:07:39.579Z,23.10
2018-05-11T03:08:40.219Z,23.80
2018-05-11T03:09:39.572Z,23.80
2018-05-11T03:10:39.555Z,23.00
2018-05-11T03:11:39.543Z,23.20
2018-05-11T03:12:39.536Z,22.30
2018-05-11T03:13:39.530Z,21.50
2018-05-11T03:14:39.517Z,21.70
2018-05-11T03:15:39.510Z,22.10
2018-05-11T03:16:39.504Z,22.10
2018-05-11T03:17:39.503Z,22.20
2018-05-11T03:18:39.603Z,21.40
2018-05-11T03:19:39.477Z,22.10
2018-05-11T03:20:39.466Z,22.40
2018-05-11T03:21:39.463Z,21.50
2018-05-11T03:22:39.451Z,21.90
2018-05-11T03:23:39.453Z,22.30
2018-05-11T03:24:39.436Z,22.40
2018-05-11T03:25:39.426Z,20.90
2018-05-11T03:26:39.420Z,21.90
2018-05-11T03:27:39.408Z,21.50
2018-05-11T03:28:39.405Z,22.40
2018-05-11T03:29:39.393Z,21.80
2018-05-11T03:30:39.381Z,21.20
2018-05-11T03:31:39.378Z,21.40
2018-05-11T03:32:39.377Z,21.50
2018-05-11T03:33:39.363Z,21.50
2018-05-11T03:34:39.353Z,21.90
2018-05-11T03:35:39.344Z,21.70
2018-05-11T03:36:39.333Z,21.90
2018-05-11T03:37:39.323Z,21.00
2018-05-11T03:38:39.319Z,21.70
2018-05-11T03:39:39.322Z,21.30
2018-05-11T03:40:39.298Z,21.90
2018-05-11T03:41:39.289Z,22.50
2018-05-11T03:42:39.288Z,22.40
2018-05-11T03:43:39.277Z,22.20
2018-05-11T03:44:39.265Z,22.30
2018-05-11T03:45:39.263Z,22.10
2018-05-11T03:46:39.252Z,23.30
2018-05-11T03:47:39.241Z,22.70
2018-05-11T03:48:39.233Z,22.40
2018-05-11T03:49:39.223Z,23.30
2018-05-11T03:50:39.229Z,23.00
2018-05-11T03:51:39.208Z,22.50
2018-05-11T03:52:39.216Z,22.50
2018-05-11T03:53:39.188Z,22.90
2018-05-11T03:54:39.186Z,22.10
2018-05-11T03:55:39.175Z,21.90
2018-05-11T03:56:39.166Z,22.20
2018-05-11T03:57:39.162Z,21.20
2018-05-11T03:58:39.155Z,21.70
2018-05-11T03:59:39.146Z,20.30
2018-05-11T04:00:39.133Z,21.20
2018-05-11T04:01:39.128Z,21.10
2018-05-11T04:02:39.117Z,20.40
2018-05-11T04:03:39.112Z,21.50
2018-05-11T04:04:39.109Z,20.10
2018-05-11T04:05:39.099Z,20.10
2018-05-11T04:06:39.086Z,19.80
2018-05-11T04:07:39.075Z,20.60
2018-05-11T04:08:39.072Z,20.90
2018-05-11T04:09:39.059Z,20.70
2018-05-11T04:10:39.067Z,20.80
2018-05-11T04:11:39.039Z,19.90
2018-05-11T04:12:39.742Z,21.00
2018-05-11T04:13:39.022Z,21.70
2018-05-11T04:14:39.021Z,21.00
2018-05-11T04:15:39.007Z,20.90
2018-05-11T04:16:38.996Z,20.60
2018-05-11T04:17:38.994Z,20.30
2018-05-11T04:18:38.984Z,20.40
2018-05-11T04:19:38.977Z,20.00
2018-05-11T04:20:39.056Z,19.40
2018-05-11T04:21:38.960Z,19.00
2018-05-11T04:22:38.952Z,18.50
2018-05-11T04:23:38.944Z,19.60
2018-05-11T04:24:38.938Z,19.20
2018-05-11T04:25:38.934Z,18.60
2018-05-11T04:26:38.921Z,18.60
2018-05-11T04:27:38.914Z,18.10
2018-05-11T04:28:38.903Z,19.20
2018-05-11T04:29:38.903Z,18.20
2018-05-11T04:30:38.894Z,18.20
2018-05-11T04:31:38.880Z,18.20
2018-05-11T04:32:38.899Z,19.70
2018-05-11T04:33:38.864Z,19.30
2018-05-11T04:34:38.860Z,18.30
2018-05-11T04:35:38.847Z,18.60
2018-05-11T04:36:38.842Z,19.40
2018-05-11T04:37:38.833Z,18.70
2018-05-11T04:38:38.824Z,19.50
2018-05-11T04:39:38.817Z,19.60
2018-05-11T04:40:38.814Z,18.80
2018-05-11T04:41:38.801Z,19.60
2018-05-11T04:42:38.797Z,18.60
2018-05-11T04:43:38.784Z,17.90
2018-05-11T04:44:38.772Z,19.10
2018-05-11T04:45:38.772Z,18.70
2018-05-11T04:46:38.758Z,19.10
2018-05-11T04:47:38.756Z,18.60
2018-05-11T04:48:38.749Z,18.30
2018-05-11T04:49:38.732Z,18.10
2018-05-11T04:50:38.749Z,18.50
2018-05-11T04:51:38.736Z,17.90
2018-05-11T04:52:38.733Z,18.70
2018-05-11T04:53:38.705Z,17.10
2018-05-11T04:54:38.695Z,18.20
2018-05-11T04:55:38.688Z,18.30
2018-05-11T04:56:38.683Z,17.50
2018-05-11T04:57:38.674Z,18.50
2018-05-11T04:58:38.689Z,17.30
2018-05-11T04:59:38.664Z,18.00
2018-05-11T05:00:38.654Z,17.00
2018-05-11T05:01:38.647Z,17.20
2018-05-11T05:02:38.635Z,17.50
2018-05-11T05:03:38.625Z,16.60
2018-05-11T05:04:38.616Z,16.60
2018-05-11T05:05:38.612Z,16.80
2018-05-11T05:06:38.612Z,16.90
2018-05-11T05:07:38.597Z,17.90
2018-05-11T05:08:38.595Z,17.60
2018-05-11T05:09:38.594Z,16.90
2018-05-11T05:10:38.571Z,17.60
2018-05-11T05:11:38.567Z,17.90
2018-05-11T05:12:38.556Z,17.50
2018-05-11T05:13:38.552Z,16.60
2018-05-11T05:14:38.545Z,16.40
2018-05-11T05:15:38.540Z,17.60
2018-05-11T05:16:38.530Z,16.20
2018-05-11T05:17:38.521Z,15.80
2018-05-11T05:18:38.520Z,16.00
2018-05-11T05:19:38.509Z,16.70
2018-05-11T05:20:40.254Z,17.10
2018-05-11T05:21:39.252Z,18.00
2018-05-11T05:22:38.489Z,17.40
2018-05-11T05:23:38.485Z,18.30
2018-05-11T05:24:38.469Z,17.30
2018-05-11T05:25:38.462Z,18.00
2018-05-11T05:26:38.454Z,17.70
2018-05-11T05:27:38.451Z,17.70
2018-05-11T05:28:38.445Z,18.20
2018-05-11T05:29:38.437Z,18.00
2018-05-11T05:30:38.430Z,18.40
2018-05-11T05:31:38.417Z,19.00
2018-05-11T05:32:38.410Z,19.00
2018-05-11T05:33:38.438Z,19.00
2018-05-11T05:34:38.396Z,19.00
2018-05-11T05:35:38.392Z,18.80
2018-05-11T05:36:38.384Z,19.70
2018-05-11T05:37:38.373Z,18.40
2018-05-11T05:38:38.377Z,18.80
2018-05-11T05:39:38.359Z,20.30
2018-05-11T05:40:38.352Z,18.60
2018-05-11T05:41:38.343Z,20.00
2018-05-11T05:43:06.249Z,19.20
2018-05-11T05:43:38.328Z,18.70
2018-05-11T05:44:38.325Z,19.10
2018-05-11T05:45:38.321Z,18.80
2018-05-11T05:46:39.266Z,18.50
2018-05-11T05:47:38.305Z,19.40
2018-05-11T05:48:38.311Z,19.20
2018-05-11T05:49:38.289Z,19.10
2018-05-11T05:50:38.277Z,19.60
2018-05-11T05:51:38.276Z,19.50
2018-05-11T05:52:38.265Z,18.80
2018-05-11T05:54:04.254Z,20.10
2018-05-11T05:54:38.263Z,20.00
2018-05-11T05:55:38.247Z,19.80
2018-05-11T05:56:38.239Z,19.50
2018-05-11T05:57:38.228Z,19.80
2018-05-11T05:58:38.230Z,19.90
2018-05-11T05:59:38.212Z,20.40
2018-05-11T06:00:38.204Z,21.00
2018-05-11T06:01:38.199Z,19.70
2018-05-11T06:02:38.193Z,20.20
2018-05-11T06:03:38.188Z,19.30
2018-05-11T06:04:38.185Z,20.60
2018-05-11T06:05:38.170Z,20.30
2018-05-11T06:06:38.160Z,20.00
2018-05-11T06:07:38.759Z,19.90
2018-05-11T06:08:38.149Z,20.40
2018-05-11T06:10:05.776Z,20.90
2018-05-11T06:10:38.142Z,19.10
2018-05-11T06:11:42.764Z,20.10
2018-05-11T06:12:38.121Z,20.10
2018-05-11T06:13:38.110Z,19.70
2018-05-11T06:14:38.108Z,19.70
2018-05-11T06:15:38.211Z,19.30
2018-05-11T06:16:38.090Z,19.80
2018-05-11T06:18:06.795Z,19.90
2018-05-11T06:18:38.082Z,19.50
2018-05-11T06:19:38.071Z,19.40
2018-05-11T06:20:38.068Z,19.70
2018-05-11T06:21:38.057Z,18.20
2018-05-11T06:22:38.052Z,19.70
2018-05-11T06:23:38.039Z,19.00
2018-05-11T06:24:39.773Z,18.00
2018-05-11T06:25:38.026Z,18.60
2018-05-11T06:26:38.768Z,18.90
2018-05-11T06:27:38.013Z,18.50
2018-05-11T06:28:38.013Z,18.20
2018-05-11T06:29:37.999Z,18.40
2018-05-11T06:30:37.999Z,19.60
2018-05-11T06:31:37.989Z,18.90
2018-05-11T06:32:37.979Z,18.60
2018-05-11T06:33:37.980Z,19.10
2018-05-11T06:34:37.969Z,19.60
2018-05-11T06:35:37.961Z,21.90
2018-05-11T06:36:37.948Z,19.50
2018-05-11T06:37:37.943Z,18.60
2018-05-11T06:38:37.942Z,19.40
2018-05-11T06:39:37.937Z,19.80
2018-05-11T06:40:37.960Z,19.80
2018-05-11T06:41:37.917Z,20.30
2018-05-11T06:42:37.936Z,20.40
2018-05-11T06:43:40.122Z,20.20
2018-05-11T06:44:37.897Z,19.80
2018-05-11T06:45:44.959Z,20.00
2018-05-11T06:46:37.902Z,18.50
2018-05-11T06:47:37.876Z,18.30
2018-05-11T06:48:37.868Z,19.20
2018-05-11T06:49:37.866Z,19.40
2018-05-11T06:50:37.882Z,19.20
2018-05-11T06:51:37.851Z,19.20
2018-05-11T06:52:37.838Z,19.30
2018-05-11T06:53:37.837Z,19.30
2018-05-11T06:54:37.826Z,18.50
2018-05-11T06:55:37.819Z,18.80
2018-05-11T06:56:37.811Z,20.00
2018-05-11T06:57:37.804Z,19.30
2018-05-11T06:58:38.769Z,18.20
2018-05-11T06:59:37.793Z,19.40
2018-05-11T07:00:37.798Z,19.10
2018-05-11T07:01:37.827Z,18.70
2018-05-11T07:02:37.777Z,19.00
2018-05-11T07:03:37.765Z,19.40
2018-05-11T07:04:37.763Z,18.50
2018-05-11T07:05:37.751Z,19.20
2018-05-11T07:06:37.755Z,19.80
2018-05-11T07:07:37.778Z,20.60
2018-05-11T07:08:37.733Z,20.00
2018-05-11T07:09:37.728Z,20.70
2018-05-11T07:10:37.719Z,20.10
2018-05-11T07:11:37.714Z,19.80
2018-05-11T07:12:37.710Z,20.30
2018-05-11T07:13:37.700Z,20.90
2018-05-11T07:14:37.692Z,19.70
2018-05-11T07:15:37.688Z,20.60
2018-05-11T07:16:37.679Z,20.90
2018-05-11T07:17:37.678Z,19.00
2018-05-11T07:18:37.664Z,18.60
2018-05-11T07:19:37.657Z,19.40
2018-05-11T07:20:37.649Z,18.60
2018-05-11T07:21:37.659Z,19.40
2018-05-11T07:22:37.642Z,19.60
2018-05-11T07:23:37.634Z,19.40
2018-05-11T07:24:37.630Z,20.30
2018-05-11T07:25:37.626Z,19.70
2018-05-11T07:26:37.612Z,19.30
2018-05-11T07:27:37.607Z,20.50
2018-05-11T07:28:37.625Z,19.80
2018-05-11T07:29:37.626Z,19.40
2018-05-11T07:30:37.592Z,19.40
2018-05-11T07:31:37.587Z,19.70
2018-05-11T07:32:37.575Z,19.20
2018-05-11T07:33:37.571Z,19.60
2018-05-11T07:34:37.572Z,20.30
2018-05-11T07:35:37.553Z,19.30
2018-05-11T07:36:37.551Z,18.40
2018-05-11T07:37:37.569Z,18.90
2018-05-11T07:38:37.543Z,18.30
2018-05-11T07:39:37.542Z,18.20
2018-05-11T07:40:37.532Z,17.20
2018-05-11T07:41:37.521Z,17.80
2018-05-11T07:42:37.515Z,17.00
2018-05-11T07:43:37.507Z,18.10
2018-05-11T07:44:37.526Z,17.70
2018-05-11T07:45:37.499Z,17.40
2018-05-11T07:46:37.492Z,17.70
2018-05-11T07:47:37.496Z,17.10
2018-05-11T07:48:37.478Z,17.30
2018-05-11T07:49:37.477Z,16.50
2018-05-11T07:50:37.468Z,16.60
2018-05-11T07:51:37.492Z,16.60
2018-05-11T07:52:37.457Z,17.00
2018-05-11T07:53:37.465Z,17.60
2018-05-11T07:54:37.448Z,16.50
2018-05-11T07:55:37.440Z,16.90
2018-05-11T07:56:37.454Z,16.10
2018-05-11T07:57:37.470Z,15.70
2018-05-11T07:58:37.436Z,15.40
2018-05-11T07:59:37.428Z,14.70
2018-05-11T08:00:37.438Z,14.80
2018-05-11T08:01:37.439Z,14.80
2018-05-11T08:02:37.504Z,14.90
2018-05-11T08:03:38.300Z,14.40
2018-05-11T08:04:37.395Z,14.40
2018-05-11T08:05:37.389Z,15.10
2018-05-11T08:06:37.379Z,14.10
2018-05-11T08:07:37.380Z,15.50
2018-05-11T08:08:37.375Z,16.80
2018-05-11T08:09:37.368Z,17.10
2018-05-11T08:10:38.356Z,16.60
2018-05-11T08:11:37.358Z,16.30
2018-05-11T08:12:37.358Z,15.00
2018-05-11T08:13:37.361Z,15.50
2018-05-11T08:14:37.361Z,15.20
2018-05-11T08:15:37.369Z,15.20
2018-05-11T08:16:37.345Z,14.70
2018-05-11T08:17:37.383Z,14.80
2018-05-11T08:18:37.328Z,15.10
2018-05-11T08:19:37.311Z,14.20
2018-05-11T08:20:37.304Z,14.10
2018-05-11T08:21:37.328Z,14.50
2018-05-11T08:22:37.296Z,14.90
2018-05-11T08:23:37.289Z,14.30
2018-05-11T08:24:37.285Z,14.40
2018-05-11T08:25:37.286Z,13.30
2018-05-11T08:26:37.395Z,13.70
2018-05-11T08:27:37.276Z,13.90
2018-05-11T08:28:37.807Z,14.00
2018-05-11T08:29:37.277Z,13.50
2018-05-11T08:30:37.271Z,13.50
2018-05-11T08:31:37.265Z,13.50
2018-05-11T08:32:37.259Z,13.10
2018-05-11T08:33:37.259Z,13.00
2018-05-11T08:34:37.252Z,13.00
2018-05-11T08:35:37.242Z,13.90
2018-05-11T08:36:37.237Z,17.10
2018-05-11T08:37:37.231Z,14.80
2018-05-11T08:38:37.226Z,13.70
2018-05-11T08:39:37.236Z,13.70
2018-05-11T08:40:37.224Z,12.50
2018-05-11T08:41:37.231Z,15.60
2018-05-11T08:42:37.216Z,13.80
2018-05-11T08:43:37.234Z,13.10
2018-05-11T08:44:37.220Z,15.30
2018-05-11T08:45:37.216Z,12.10
2018-05-11T08:46:37.205Z,12.70
2018-05-11T08:47:37.211Z,11.80
2018-05-11T08:48:37.204Z,10.80
2018-05-11T08:49:37.215Z,11.30
2018-05-11T08:50:37.208Z,11.50
2018-05-11T08:51:37.205Z,11.00
2018-05-11T08:52:37.212Z,12.00
2018-05-11T08:53:37.221Z,14.70
2018-05-11T08:54:37.225Z,12.30
2018-05-11T08:55:37.234Z,11.70
2018-05-11T08:56:37.213Z,11.60
2018-05-11T08:57:37.219Z,10.80
2018-05-11T08:58:37.230Z,11.20
2018-05-11T08:59:37.234Z,12.30
2018-05-11T09:00:37.214Z,11.00
2018-05-11T09:01:37.241Z,11.30
2018-05-11T09:02:37.234Z,11.00
2018-05-11T09:03:37.241Z,10.50
2018-05-11T09:04:37.230Z,11.10
2018-05-11T09:05:37.252Z,10.90
2018-05-11T09:06:37.235Z,10.00
2018-05-11T09:07:37.240Z,10.00
2018-05-11T09:08:37.569Z,9.90
2018-05-11T09:09:37.454Z,10.00
2018-05-11T09:10:37.249Z,9.50
2018-05-11T09:11:37.252Z,9.90
2018-05-11T09:12:37.259Z,10.40
2018-05-11T09:13:37.293Z,10.90
2018-05-11T09:14:37.270Z,10.10
2018-05-11T09:15:37.279Z,11.10
2018-05-11T09:16:37.274Z,10.60
2018-05-11T09:17:37.268Z,10.30
2018-05-11T09:18:37.276Z,10.60
2018-05-11T09:19:37.279Z,9.60
2018-05-11T09:20:37.289Z,10.00
2018-05-11T09:21:37.326Z,9.90
2018-05-11T09:22:37.298Z,10.30
2018-05-11T09:23:37.295Z,9.90
2018-05-11T09:24:37.297Z,10.00
2018-05-11T09:25:37.301Z,9.60
2018-05-11T09:26:37.326Z,11.40
2018-05-11T09:27:37.317Z,10.20
2018-05-11T09:28:37.331Z,10.60
2018-05-11T09:29:37.340Z,9.40
2018-05-11T09:30:37.343Z,9.80
2018-05-11T09:31:37.350Z,9.70
2018-05-11T09:32:37.348Z,9.60
2018-05-11T09:33:37.369Z,12.60
2018-05-11T09:34:37.356Z,11.70
2018-05-11T09:35:37.366Z,12.00
2018-05-11T09:36:37.339Z,12.40
2018-05-11T09:37:37.355Z,12.20
2018-05-11T09:38:37.353Z,11.40
2018-05-11T09:39:37.391Z,10.90
2018-05-11T09:40:37.359Z,10.40
2018-05-11T09:41:37.368Z,9.50
2018-05-11T09:42:37.378Z,9.30
2018-05-11T09:43:37.365Z,8.20
2018-05-11T09:44:37.372Z,8.50
2018-05-11T09:45:37.371Z,7.80
2018-05-11T09:46:37.373Z,8.00
2018-05-11T09:47:37.379Z,8.50
2018-05-11T09:48:37.390Z,9.40
2018-05-11T09:49:37.426Z,10.20
2018-05-11T09:50:37.391Z,9.80
2018-05-11T09:51:37.405Z,10.70
2018-05-11T09:52:37.412Z,9.20
2018-05-11T09:53:37.407Z,8.10
2018-05-11T09:54:37.418Z,7.00
2018-05-11T09:55:37.423Z,7.30
2018-05-11T09:56:37.426Z,7.20
2018-05-11T09:57:37.428Z,8.70
2018-05-11T09:58:37.440Z,8.40
2018-05-11T09:59:37.446Z,9.10
2018-05-11T10:00:37.456Z,10.00
2018-05-11T10:01:37.468Z,9.70
2018-05-11T10:02:37.462Z,9.50
2018-05-11T10:03:37.462Z,9.40
2018-05-11T10:04:37.466Z,9.70
2018-05-11T10:05:37.473Z,8.80
2018-05-11T10:06:37.477Z,6.70
2018-05-11T10:07:37.486Z,7.20
2018-05-11T10:08:37.493Z,8.40
2018-05-11T10:09:37.500Z,8.70
2018-05-11T10:10:37.500Z,8.90
2018-05-11T10:11:37.515Z,8.30
2018-05-11T10:12:37.519Z,7.90
2018-05-11T10:13:37.518Z,9.10
2018-05-11T10:14:37.529Z,7.80
2018-05-11T10:15:37.547Z,8.30
2018-05-11T10:16:37.540Z,8.90
2018-05-11T10:17:37.552Z,8.60
2018-05-11T10:18:37.547Z,9.30
2018-05-11T10:19:37.555Z,9.60
2018-05-11T10:20:37.563Z,9.40
2018-05-11T10:21:37.589Z,9.10
2018-05-11T10:22:37.592Z,9.20
2018-05-11T10:23:37.595Z,8.60
2018-05-11T10:24:37.603Z,8.70
2018-05-11T10:25:37.592Z,8.90
2018-05-11T10:26:37.608Z,9.20
2018-05-11T10:27:37.620Z,9.30
2018-05-11T10:28:37.611Z,9.80
2018-05-11T10:29:37.611Z,8.90
2018-05-11T10:30:37.631Z,8.90
2018-05-11T10:31:37.635Z,9.30
2018-05-11T10:32:37.659Z,9.50
2018-05-11T10:33:37.632Z,9.00
2018-05-11T10:34:37.638Z,9.70
2018-05-11T10:35:37.643Z,10.70
2018-05-11T10:36:37.653Z,9.50
2018-05-11T10:37:37.653Z,10.80
2018-05-11T10:38:37.663Z,9.80
2018-05-11T10:39:37.681Z,9.90
2018-05-11T10:40:37.675Z,10.30
2018-05-11T10:41:37.667Z,10.00
2018-05-11T10:42:37.671Z,9.70
2018-05-11T10:43:37.677Z,9.30
2018-05-11T10:44:37.682Z,9.20
2018-05-11T10:45:37.679Z,9.30
2018-05-11T10:46:37.684Z,9.20
2018-05-11T10:47:37.685Z,9.00
2018-05-11T10:48:37.749Z,8.20
2018-05-11T10:49:37.696Z,8.40
2018-05-11T10:50:37.693Z,8.00
2018-05-11T10:51:37.706Z,8.00
2018-05-11T10:52:37.709Z,7.60
2018-05-11T10:53:37.728Z,7.60
2018-05-11T10:54:37.725Z,7.50
2018-05-11T10:55:37.725Z,7.40
2018-05-11T10:56:37.725Z,8.60
2018-05-11T10:57:37.734Z,7.80
2018-05-11T10:58:37.736Z,8.60
2018-05-11T10:59:37.748Z,8.20
2018-05-11T11:00:37.753Z,8.40
2018-05-11T11:01:37.759Z,8.20
2018-05-11T11:02:37.763Z,8.00
2018-05-11T11:03:37.769Z,8.30
2018-05-11T11:04:37.776Z,8.90
2018-05-11T11:05:37.778Z,8.90
2018-05-11T11:06:37.798Z,8.50
2018-05-11T11:07:37.801Z,8.70
2018-05-11T11:08:37.799Z,8.40
2018-05-11T11:09:37.802Z,8.70
2018-05-11T11:10:37.809Z,8.40
2018-05-11T11:11:37.824Z,8.40
2018-05-11T11:12:37.825Z,8.20
2018-05-11T11:13:37.856Z,8.40
2018-05-11T11:14:37.827Z,8.40
2018-05-11T11:15:37.842Z,7.90
2018-05-11T11:16:37.838Z,7.80
2018-05-11T11:17:37.849Z,7.80
2018-05-11T11:18:37.852Z,7.80
2018-05-11T11:19:37.849Z,8.00
2018-05-11T11:20:37.857Z,8.60
2018-05-11T11:21:37.864Z,9.10
2018-05-11T11:22:37.869Z,9.80
2018-05-11T11:23:37.880Z,8.90
2018-05-11T11:24:37.877Z,8.80
2018-05-11T11:25:37.883Z,9.70
2018-05-11T11:26:37.894Z,9.40
2018-05-11T11:27:37.895Z,9.60
2018-05-11T11:28:37.898Z,9.50
2018-05-11T11:29:37.899Z,9.60
2018-05-11T11:30:37.904Z,9.90
2018-05-11T11:31:37.908Z,9.60
2018-05-11T11:32:37.910Z,9.20
2018-05-11T11:33:37.912Z,10.60
2018-05-11T11:34:37.936Z,8.70
2018-05-11T11:35:37.926Z,9.70
2018-05-11T11:36:37.933Z,9.80
2018-05-11T11:37:37.942Z,10.00
2018-05-11T11:38:37.945Z,9.60
2018-05-11T11:39:37.954Z,9.50
2018-05-11T11:40:37.949Z,9.80
2018-05-11T11:41:37.960Z,9.90
2018-05-11T11:42:37.967Z,9.10
2018-05-11T11:43:37.967Z,9.00
2018-05-11T11:44:37.971Z,9.30
2018-05-11T11:45:37.980Z,9.50
2018-05-11T11:46:37.978Z,10.20
2018-05-11T11:47:38.010Z,9.70
2018-05-11T11:48:37.989Z,10.00
2018-05-11T11:49:37.995Z,9.80
2018-05-11T11:50:38.003Z,9.30
2018-05-11T11:51:38.008Z,9.40
2018-05-11T11:52:38.015Z,9.00
2018-05-11T11:53:38.020Z,8.50
2018-05-11T11:54:38.948Z,9.10
2018-05-11T11:55:38.050Z,9.00
2018-05-11T11:56:38.040Z,9.00
2018-05-11T11:57:38.040Z,9.80
2018-05-11T11:58:38.055Z,10.00
2018-05-11T11:59:38.056Z,10.10
2018-05-11T12:00:38.067Z,9.40
2018-05-11T12:01:38.155Z,9.90
2018-05-11T12:02:38.080Z,9.70
2018-05-11T12:03:38.088Z,10.30
2018-05-11T12:04:38.088Z,11.20
2018-05-11T12:05:38.148Z,10.30
2018-05-11T12:06:38.103Z,10.20
2018-05-11T12:07:38.110Z,9.30
2018-05-11T12:08:38.116Z,10.10
2018-05-11T12:09:38.118Z,10.60
2018-05-11T12:10:38.124Z,11.40
2018-05-11T12:11:38.138Z,11.20
2018-05-11T12:12:38.159Z,10.00
2018-05-11T12:13:38.146Z,10.50
2018-05-11T12:14:38.148Z,11.40
2018-05-11T12:15:38.155Z,10.40
2018-05-11T12:16:38.159Z,11.00
2018-05-11T12:17:38.172Z,10.90
2018-05-11T12:18:38.176Z,11.00
2018-05-11T12:19:38.187Z,11.30
2018-05-11T12:20:38.232Z,9.90
2018-05-11T12:21:38.193Z,9.70
2018-05-11T12:22:38.200Z,9.70
2018-05-11T12:23:38.204Z,12.40
2018-05-11T12:24:38.234Z,12.60
2018-05-11T12:25:38.257Z,12.70
2018-05-11T12:26:38.222Z,11.80
2018-05-11T12:27:38.239Z,12.10
2018-05-11T12:28:38.237Z,12.00
2018-05-11T12:29:38.246Z,12.80
2018-05-11T12:30:38.253Z,13.30
2018-05-11T12:31:38.267Z,14.30
2018-05-11T12:32:38.284Z,14.50
2018-05-11T12:33:38.271Z,14.20
2018-05-11T12:34:38.275Z,14.90
2018-05-11T12:35:38.281Z,14.90
2018-05-11T12:36:38.292Z,14.00
2018-05-11T12:37:38.294Z,13.80
2018-05-11T12:38:38.304Z,13.70
2018-05-11T12:39:38.325Z,14.80
2018-05-11T12:40:38.310Z,13.30
2018-05-11T12:41:38.324Z,12.20
2018-05-11T12:42:38.324Z,13.20
2018-05-11T12:43:38.330Z,12.50
2018-05-11T12:44:38.338Z,12.70
2018-05-11T12:45:38.345Z,11.90
2018-05-11T12:46:38.396Z,11.90
2018-05-11T12:47:38.352Z,11.90
2018-05-11T12:48:38.355Z,12.10
2018-05-11T12:49:38.358Z,12.30
2018-05-11T12:50:38.364Z,11.90
2018-05-11T12:51:38.372Z,12.00
2018-05-11T12:52:38.378Z,12.00
2018-05-11T12:53:38.379Z,11.80
2018-05-11T12:54:38.393Z,10.90
2018-05-11T12:55:38.395Z,12.70
2018-05-11T12:56:38.398Z,12.30
2018-05-11T12:57:38.405Z,11.70